createdAt,value
2017-08-08T00:00:01.576Z,13.47
2017-08-08T00:02:35.805Z,12.90
2017-08-08T00:05:09.943Z,10.23
2017-08-08T00:07:44.073Z,11.73
2017-08-08T00:10:18.320Z,9.00
2017-08-08T00:12:52.440Z,10.40
2017-08-08T00:15:26.793Z,10.10
2017-08-08T00:18:00.896Z,9.00
2017-08-08T00:20:35.160Z,13.00
2017-08-08T00:23:09.397Z,15.53
2017-08-08T00:25:43.992Z,10.00
2017-08-08T00:28:18.176Z,10.00
2017-08-08T00:30:52.428Z,10.23
2017-08-08T00:33:26.757Z,11.00
2017-08-08T00:35:55.716Z,9.97
2017-08-08T00:38:24.905Z,12.00
2017-08-08T00:40:53.637Z,16.47
2017-08-08T00:43:21.913Z,16.20
2017-08-08T00:45:50.667Z,10.53
2017-08-08T00:48:19.024Z,10.33
2017-08-08T00:50:52.807Z,10.40
2017-08-08T00:53:21.620Z,10.67
2017-08-08T00:55:55.085Z,13.27
2017-08-08T00:58:23.381Z,11.67
2017-08-08T01:00:52.452Z,10.67
2017-08-08T01:03:21.711Z,12.80
2017-08-08T01:05:50.582Z,10.37
2017-08-08T01:08:19.365Z,15.00
2017-08-08T01:10:47.949Z,12.73
2017-08-08T01:13:16.192Z,11.00
2017-08-08T01:15:45.629Z,15.80
2017-08-08T01:18:13.892Z,9.37
2017-08-08T01:20:42.253Z,8.57
2017-08-08T01:23:10.784Z,13.43
2017-08-08T01:25:39.464Z,12.43
2017-08-08T01:28:08.090Z,10.70
2017-08-08T01:30:36.394Z,14.83
2017-08-08T01:33:06.240Z,15.30
2017-08-08T01:35:36.225Z,17.20
2017-08-08T01:38:04.563Z,13.80
2017-08-08T01:40:32.897Z,10.63
2017-08-08T01:43:01.763Z,11.23
2017-08-08T01:45:30.018Z,14.93
2017-08-08T01:47:58.300Z,13.40
2017-08-08T01:50:27.401Z,11.23
2017-08-08T01:52:56.337Z,14.70
2017-08-08T01:55:25.187Z,12.30
2017-08-08T01:57:53.833Z,11.63
2017-08-08T02:00:28.356Z,11.47
2017-08-08T02:02:57.055Z,12.73
2017-08-08T02:05:26.108Z,19.83
2017-08-08T02:07:54.397Z,13.70
2017-08-08T02:10:22.764Z,11.90
2017-08-08T02:12:52.143Z,14.10
2017-08-08T02:15:20.710Z,12.30
2017-08-08T02:17:48.978Z,13.20
2017-08-08T02:20:18.129Z,13.90
2017-08-08T02:22:47.155Z,12.13
2017-08-08T02:25:15.918Z,12.27
2017-08-08T02:27:44.616Z,13.93
2017-08-08T02:30:12.976Z,14.03
2017-08-08T02:32:41.408Z,14.70
2017-08-08T02:35:10.583Z,12.87
2017-08-08T02:37:39.233Z,21.23
2017-08-08T02:40:08.529Z,18.43
2017-08-08T02:42:37.277Z,38.77
2017-08-08T02:45:06.906Z,30.30
2017-08-08T02:47:35.173Z,13.23
2017-08-08T02:50:03.870Z,17.03
2017-08-08T02:52:32.708Z,21.33
2017-08-08T02:55:01.321Z,14.40
2017-08-08T02:57:29.961Z,14.80
2017-08-08T02:59:58.889Z,14.50
2017-08-08T03:02:27.192Z,16.27
2017-08-08T03:04:55.806Z,14.83
2017-08-08T03:07:24.833Z,17.90
2017-08-08T03:09:53.231Z,16.10
2017-08-08T03:12:21.803Z,14.40
2017-08-08T03:14:50.645Z,14.10
2017-08-08T03:17:19.721Z,15.80
2017-08-08T03:19:47.979Z,15.03
2017-08-08T03:22:16.252Z,16.87
2017-08-08T03:24:44.777Z,21.30
2017-08-08T03:27:13.285Z,22.60
2017-08-08T03:29:47.644Z,16.90
2017-08-08T03:32:20.675Z,16.77
2017-08-08T03:34:55.570Z,26.90
2017-08-08T03:37:29.911Z,19.63
2017-08-08T03:39:58.297Z,17.50
2017-08-08T03:42:26.622Z,17.57
2017-08-08T03:44:55.068Z,18.20
2017-08-08T03:47:23.464Z,27.00
2017-08-08T03:49:51.946Z,19.93
2017-08-08T03:52:21.214Z,20.63
2017-08-08T03:54:50.035Z,27.27
2017-08-08T03:57:18.623Z,22.13
2017-08-08T03:59:47.295Z,23.70
2017-08-08T04:02:16.492Z,18.87
2017-08-08T04:04:45.612Z,18.30
2017-08-08T04:07:14.405Z,15.83
2017-08-08T04:09:43.039Z,20.23
2017-08-08T04:12:11.943Z,17.10
2017-08-08T04:14:46.093Z,15.63
2017-08-08T04:17:14.808Z,17.97
2017-08-08T04:19:43.609Z,18.20
2017-08-08T04:22:12.976Z,16.67
2017-08-08T04:24:41.456Z,16.97
2017-08-08T04:27:10.158Z,16.17
2017-08-08T04:29:38.968Z,22.87
2017-08-08T04:32:07.679Z,27.20
2017-08-08T04:34:37.595Z,17.70
2017-08-08T04:37:07.872Z,20.90
2017-08-08T04:39:36.472Z,19.10
2017-08-08T04:42:04.740Z,18.63
2017-08-08T04:44:33.765Z,18.93
2017-08-08T04:47:03.320Z,17.23
2017-08-08T04:49:31.591Z,16.90
2017-08-08T04:52:00.152Z,16.07
2017-08-08T04:54:29.106Z,20.03
2017-08-08T04:56:57.588Z,16.50
2017-08-08T04:59:25.852Z,18.63
2017-08-08T05:01:54.295Z,22.40
2017-08-08T05:04:23.779Z,24.90
2017-08-08T05:06:52.155Z,23.97
2017-08-08T05:09:20.455Z,22.47
2017-08-08T05:11:48.835Z,17.27
2017-08-08T05:14:17.457Z,18.53
2017-08-08T05:16:46.833Z,18.23
2017-08-08T05:19:17.456Z,24.47
2017-08-08T05:21:45.797Z,42.27
2017-08-08T05:24:14.071Z,59.90
2017-08-08T05:26:43.131Z,17.07
2017-08-08T05:29:11.967Z,28.43
2017-08-08T05:31:40.724Z,18.60
2017-08-08T05:34:10.501Z,16.23
2017-08-08T05:36:39.308Z,16.43
2017-08-08T05:39:09.182Z,46.07
2017-08-08T05:41:37.782Z,32.63
2017-08-08T05:44:06.731Z,16.93
2017-08-08T05:46:35.063Z,17.20
2017-08-08T05:49:04.236Z,14.10
2017-08-08T05:51:33.167Z,15.67
2017-08-08T05:54:01.807Z,14.40
2017-08-08T05:56:30.075Z,13.30
2017-08-08T05:59:04.655Z,32.37
2017-08-08T06:01:38.813Z,12.57
2017-08-08T06:04:07.390Z,12.43
2017-08-08T06:06:37.274Z,10.30
2017-08-08T06:09:06.308Z,16.10
2017-08-08T06:11:34.628Z,17.20
2017-08-08T06:14:03.227Z,11.90
2017-08-08T06:16:31.740Z,12.80
2017-08-08T06:19:00.734Z,21.13
2017-08-08T06:21:29.132Z,23.97
2017-08-08T06:23:58.790Z,7.93
2017-08-08T06:26:27.478Z,10.23
2017-08-08T06:28:56.816Z,13.50
2017-08-08T06:31:31.196Z,11.40
2017-08-08T06:33:59.905Z,13.00
2017-08-08T06:36:29.373Z,10.30
2017-08-08T06:38:58.132Z,10.33
2017-08-08T06:41:26.588Z,16.60
2017-08-08T06:43:56.337Z,13.30
2017-08-08T06:46:24.829Z,10.37
2017-08-08T06:48:54.406Z,7.47
2017-08-08T06:51:23.703Z,11.70
2017-08-08T06:53:57.965Z,8.00
2017-08-08T06:59:10.410Z,7.50
2017-08-08T07:01:45.548Z,7.93
2017-08-08T07:06:58.718Z,18.10
2017-08-08T07:09:34.773Z,5.63
2017-08-08T07:12:08.972Z,13.80
2017-08-08T07:14:43.706Z,10.83
2017-08-08T07:19:57.037Z,9.23
2017-08-08T07:22:31.966Z,8.70
2017-08-08T07:30:23.544Z,6.07
2017-08-08T07:32:59.482Z,6.60
2017-08-08T07:35:35.906Z,6.20
2017-08-08T07:38:12.085Z,7.50
2017-08-08T07:40:46.272Z,6.40
2017-08-08T07:43:20.653Z,7.83
2017-08-08T07:48:33.432Z,8.70
2017-08-08T07:53:48.494Z,7.70
2017-08-08T07:56:22.996Z,6.30
2017-08-08T07:58:58.057Z,7.30
2017-08-08T08:04:16.760Z,23.20
2017-08-08T08:09:29.485Z,14.67
2017-08-08T08:12:05.911Z,9.73
2017-08-08T08:14:43.768Z,7.93
2017-08-08T08:19:56.382Z,9.30
2017-08-08T08:22:31.709Z,10.57
2017-08-08T08:25:07.751Z,12.60
2017-08-08T08:27:42.456Z,11.80
2017-08-08T08:30:16.888Z,6.67
2017-08-08T08:32:51.495Z,6.53
2017-08-08T08:35:25.847Z,11.40
2017-08-08T08:38:00.560Z,7.50
2017-08-08T08:43:17.145Z,3.90
2017-08-08T08:48:29.968Z,7.07
2017-08-08T08:53:46.780Z,4.30
2017-08-08T08:59:00.241Z,8.10
2017-08-08T09:06:52.736Z,5.03
2017-08-08T09:14:45.591Z,15.87
2017-08-08T09:17:20.377Z,19.43
2017-08-08T09:22:34.046Z,4.57
2017-08-08T09:27:47.274Z,12.00
2017-08-08T09:30:22.480Z,4.67
2017-08-08T09:32:58.418Z,7.70
2017-08-08T09:35:35.571Z,4.47
2017-08-08T09:38:10.269Z,7.37
2017-08-08T09:46:03.762Z,3.77
2017-08-08T09:51:17.459Z,4.23
2017-08-08T09:53:52.718Z,12.23
2017-08-08T10:01:44.265Z,3.87
2017-08-08T10:04:20.508Z,5.60
2017-08-08T10:06:55.532Z,7.47
2017-08-08T10:12:11.271Z,4.80
2017-08-08T10:14:45.757Z,4.87
2017-08-08T10:17:20.018Z,15.67
2017-08-08T10:27:50.825Z,3.30
2017-08-08T10:35:42.027Z,6.50
2017-08-08T10:40:58.530Z,6.50
2017-08-08T10:43:36.741Z,3.67
2017-08-08T10:46:11.711Z,4.97
2017-08-08T10:48:46.927Z,5.43
2017-08-08T10:51:23.039Z,5.27
2017-08-08T10:53:58.675Z,6.60
2017-08-08T10:56:33.482Z,9.17
2017-08-08T11:01:46.368Z,6.33
2017-08-08T11:36:15.226Z,5.43
2017-08-08T11:46:45.375Z,4.13
2017-08-08T11:49:19.733Z,4.30
2017-08-08T11:51:54.344Z,7.37
2017-08-08T11:57:12.661Z,6.57
2017-08-08T12:02:26.515Z,5.70
2017-08-08T12:05:05.141Z,8.53
2017-08-08T12:23:47.666Z,6.57
2017-08-08T12:45:19.169Z,19.77
2017-08-08T12:55:54.196Z,12.77
2017-08-08T12:58:28.550Z,9.23
2017-08-08T13:03:42.147Z,7.97
2017-08-08T13:08:58.773Z,9.33
2017-08-08T13:11:34.208Z,10.30
2017-08-08T13:16:47.535Z,13.87
2017-08-08T13:19:25.440Z,9.63
2017-08-08T13:22:00.313Z,6.50
2017-08-08T13:29:52.477Z,10.30
2017-08-08T13:40:28.390Z,13.13
2017-08-08T14:01:39.443Z,6.73
2017-08-08T14:04:14.419Z,11.40
2017-08-08T14:06:48.900Z,7.20
2017-08-08T14:09:25.051Z,7.40
2017-08-08T14:11:59.378Z,12.53
2017-08-08T14:17:14.582Z,10.20
2017-08-08T14:22:28.150Z,10.67
2017-08-08T14:27:44.497Z,58.97
2017-08-08T14:30:19.432Z,13.53
2017-08-08T14:32:53.893Z,17.83
2017-08-08T14:38:06.744Z,7.30
2017-08-08T14:40:41.886Z,10.80
2017-08-08T14:45:58.276Z,9.97
2017-08-08T14:48:34.426Z,7.80
2017-08-08T14:51:14.926Z,8.60
2017-08-08T14:53:53.484Z,7.30
2017-08-08T14:59:06.787Z,9.90
2017-08-08T15:01:41.531Z,9.57
2017-08-08T15:04:15.882Z,11.07
2017-08-08T15:09:28.975Z,12.73
2017-08-08T15:12:04.892Z,10.83
2017-08-08T15:14:39.420Z,6.60
2017-08-08T15:17:14.230Z,13.70
2017-08-08T15:22:27.908Z,5.60
2017-08-08T15:25:02.364Z,10.43
2017-08-08T15:27:37.289Z,5.33
2017-08-08T15:30:11.651Z,5.50
2017-08-08T15:32:46.882Z,5.90
2017-08-08T15:35:21.433Z,12.97
2017-08-08T15:37:55.961Z,7.03
2017-08-08T15:45:47.834Z,7.13
2017-08-08T15:48:22.507Z,10.80
2017-08-08T15:50:59.470Z,3.03
2017-08-08T15:56:14.250Z,3.30
2017-08-08T16:01:31.938Z,5.53
2017-08-08T16:06:48.090Z,9.27
2017-08-08T16:12:01.790Z,3.00
2017-08-08T16:14:36.214Z,8.27
2017-08-08T16:17:12.205Z,10.57
2017-08-08T16:19:48.169Z,6.13
2017-08-08T16:25:03.238Z,5.20
2017-08-08T16:35:37.718Z,2.73
2017-08-08T17:36:29.840Z,5.30
2017-08-08T18:13:26.384Z,5.63
2017-08-08T18:15:55.176Z,5.93
2017-08-08T18:33:51.537Z,6.23
2017-08-08T18:38:52.625Z,4.20
2017-08-08T18:46:27.177Z,7.57
2017-08-08T18:56:36.887Z,6.73
2017-08-08T18:59:05.317Z,7.60
2017-08-08T19:01:33.717Z,5.07
2017-08-08T19:04:02.761Z,4.80
2017-08-08T19:06:34.692Z,7.20
2017-08-08T19:09:03.426Z,4.70
2017-08-08T19:14:06.710Z,4.20
2017-08-08T19:16:38.849Z,5.00
2017-08-08T19:21:40.673Z,5.23
2017-08-08T19:24:09.710Z,3.87
2017-08-08T19:26:39.732Z,2.33
2017-08-08T19:29:08.155Z,5.13
2017-08-08T19:44:32.159Z,9.37
2017-08-08T19:47:00.545Z,11.27
2017-08-08T19:52:01.554Z,7.73
2017-08-08T19:54:29.824Z,10.30
2017-08-08T19:56:58.189Z,7.80
2017-08-08T19:59:26.608Z,7.30
2017-08-08T20:04:31.870Z,7.13
2017-08-08T20:09:32.844Z,19.10
2017-08-08T20:12:01.565Z,11.73
2017-08-08T20:17:02.564Z,3.17
2017-08-08T20:19:34.414Z,3.30
2017-08-08T20:22:02.825Z,5.40
2017-08-08T20:24:31.145Z,2.60
2017-08-08T20:27:01.073Z,10.70
2017-08-08T20:29:30.245Z,4.43
2017-08-08T20:32:00.020Z,4.57
2017-08-08T20:37:01.009Z,3.43
2017-08-08T20:39:29.928Z,11.30
2017-08-08T20:44:31.730Z,14.23
2017-08-08T20:47:00.054Z,6.80
2017-08-08T20:49:29.168Z,6.20
2017-08-08T20:51:57.909Z,7.97
2017-08-08T20:54:27.170Z,5.90
2017-08-08T20:56:55.653Z,7.00
2017-08-08T20:59:25.681Z,4.10
2017-08-08T21:01:54.453Z,3.20
2017-08-08T21:04:22.954Z,2.47
2017-08-08T21:06:51.370Z,4.07
2017-08-08T21:09:19.808Z,4.63
2017-08-08T21:11:48.117Z,3.07
2017-08-08T21:14:16.396Z,3.80
2017-08-08T21:16:44.780Z,8.00
2017-08-08T21:19:13.629Z,3.33
2017-08-08T21:21:41.928Z,6.90
2017-08-08T21:24:12.009Z,5.23
2017-08-08T21:26:40.285Z,4.43
2017-08-08T21:29:09.080Z,3.17
2017-08-08T21:31:37.420Z,7.83
2017-08-08T21:34:06.123Z,6.27
2017-08-08T21:36:34.395Z,4.87
2017-08-08T21:39:03.609Z,3.20
2017-08-08T21:41:32.013Z,3.10
2017-08-08T21:44:00.251Z,2.60
2017-08-08T21:46:28.639Z,3.20
2017-08-08T21:48:56.920Z,3.70
2017-08-08T21:51:25.543Z,2.83
2017-08-08T21:53:54.231Z,4.00
2017-08-08T21:56:22.534Z,2.93
2017-08-08T21:58:51.314Z,5.20
2017-08-08T22:01:19.785Z,5.57
2017-08-08T22:03:48.115Z,7.60
2017-08-08T22:06:16.437Z,6.63
2017-08-08T22:08:44.695Z,6.73
2017-08-08T22:11:13.161Z,5.20
2017-08-08T22:13:41.488Z,2.43
2017-08-08T22:16:09.893Z,2.70
2017-08-08T22:18:38.143Z,2.67
2017-08-08T22:21:06.466Z,5.33
2017-08-08T22:23:34.817Z,2.90
2017-08-08T22:26:03.067Z,6.10
2017-08-08T22:28:31.313Z,3.83
2017-08-08T22:30:59.973Z,6.37
2017-08-08T22:33:28.211Z,2.60
2017-08-08T22:35:56.501Z,4.60
2017-08-08T22:38:24.852Z,3.37
2017-08-08T22:40:53.146Z,2.33
2017-08-08T22:43:21.784Z,3.40
2017-08-08T22:45:52.665Z,5.33
2017-08-08T22:48:21.000Z,3.40
2017-08-08T22:50:49.341Z,3.70
2017-08-08T22:53:17.591Z,6.33
2017-08-08T22:55:45.858Z,3.70
2017-08-08T22:58:14.283Z,2.63
2017-08-08T23:00:42.912Z,4.27
2017-08-08T23:03:11.412Z,5.97
2017-08-08T23:05:39.690Z,5.33
2017-08-08T23:08:07.981Z,3.93
2017-08-08T23:10:36.358Z,4.30
2017-08-08T23:13:04.676Z,7.20
2017-08-08T23:15:33.177Z,2.73
2017-08-08T23:18:01.505Z,1.80
2017-08-08T23:20:29.769Z,2.83
2017-08-08T23:22:58.044Z,3.07
2017-08-08T23:25:26.361Z,2.67
2017-08-08T23:27:54.944Z,16.93
2017-08-08T23:30:23.292Z,5.30
2017-08-08T23:32:51.571Z,6.80
2017-08-08T23:35:20.732Z,1.97
2017-08-08T23:37:49.115Z,5.03
2017-08-08T23:40:17.404Z,4.23
2017-08-08T23:42:45.715Z,4.27
2017-08-08T23:45:14.262Z,3.60
2017-08-08T23:47:42.696Z,2.60
2017-08-08T23:50:11.032Z,2.13
2017-08-08T23:52:39.327Z,2.60
2017-08-08T23:55:07.645Z,2.80
2017-08-08T23:57:36.020Z,3.07
